sensor_id;sensor_type;location;lat;lon;timestamp;P1;durP1;ratioP1;P2;durP2;ratioP2
79414;SDS011;68864;44.972;19.612;2023-07-28T00:02:24;15.65;;;5.60;;
79414;SDS011;68864;44.972;19.612;2023-07-28T00:04:50;15.60;;;5.90;;
79414;SDS011;68864;44.972;19.612;2023-07-28T00:07:17;17.30;;;4.85;;
79414;SDS011;68864;44.972;19.612;2023-07-28T00:09:44;18.98;;;6.20;;
79414;SDS011;68864;44.972;19.612;2023-07-28T00:12:11;14.98;;;5.18;;
79414;SDS011;68864;44.972;19.612;2023-07-28T00:14:39;11.80;;;3.55;;
79414;SDS011;68864;44.972;19.612;2023-07-28T00:17:06;12.00;;;2.72;;
79414;SDS011;68864;44.972;19.612;2023-07-28T00:19:32;8.25;;;2.38;;
79414;SDS011;68864;44.972;19.612;2023-07-28T00:21:59;6.35;;;2.17;;
79414;SDS011;68864;44.972;19.612;2023-07-28T00:24:26;9.48;;;1.35;;
79414;SDS011;68864;44.972;19.612;2023-07-28T00:26:53;9.20;;;1.10;;
79414;SDS011;68864;44.972;19.612;2023-07-28T00:29:19;5.22;;;1.08;;
79414;SDS011;68864;44.972;19.612;2023-07-28T00:31:47;5.05;;;1.10;;
79414;SDS011;68864;44.972;19.612;2023-07-28T00:34:14;13.93;;;4.55;;
79414;SDS011;68864;44.972;19.612;2023-07-28T00:36:41;10.82;;;2.72;;
79414;SDS011;68864;44.972;19.612;2023-07-28T00:39:07;20.77;;;5.38;;
79414;SDS011;68864;44.972;19.612;2023-07-28T00:41:34;19.65;;;6.93;;
79414;SDS011;68864;44.972;19.612;2023-07-28T00:44:01;13.68;;;4.80;;
79414;SDS011;68864;44.972;19.612;2023-07-28T00:46:28;8.18;;;2.33;;
79414;SDS011;68864;44.972;19.612;2023-07-28T00:48:56;6.38;;;2.08;;
79414;SDS011;68864;44.972;19.612;2023-07-28T00:51:22;12.95;;;3.25;;
79414;SDS011;68864;44.972;19.612;2023-07-28T00:53:49;9.10;;;2.17;;
79414;SDS011;68864;44.972;19.612;2023-07-28T00:56:18;6.80;;;1.58;;
79414;SDS011;68864;44.972;19.612;2023-07-28T00:58:45;10.13;;;4.05;;
79414;SDS011;68864;44.972;19.612;2023-07-28T01:03:47;13.38;;;4.78;;
79414;SDS011;68864;44.972;19.612;2023-07-28T01:08:47;13.07;;;3.15;;
79414;SDS011;68864;44.972;19.612;2023-07-28T01:13:46;21.88;;;4.40;;
79414;SDS011;68864;44.972;19.612;2023-07-28T01:16:13;8.32;;;2.67;;
79414;SDS011;68864;44.972;19.612;2023-07-28T01:18:40;8.43;;;1.73;;
79414;SDS011;68864;44.972;19.612;2023-07-28T01:23:40;5.90;;;1.42;;
79414;SDS011;68864;44.972;19.612;2023-07-28T01:26:11;4.78;;;1.05;;
79414;SDS011;68864;44.972;19.612;2023-07-28T01:28:40;7.28;;;1.33;;
79414;SDS011;68864;44.972;19.612;2023-07-28T01:31:07;8.55;;;2.60;;
79414;SDS011;68864;44.972;19.612;2023-07-28T01:33:34;6.53;;;1.50;;
79414;SDS011;68864;44.972;19.612;2023-07-28T01:36:02;10.27;;;1.67;;
79414;SDS011;68864;44.972;19.612;2023-07-28T01:38:29;3.75;;;1.02;;
79414;SDS011;68864;44.972;19.612;2023-07-28T01:40:56;6.88;;;2.28;;
79414;SDS011;68864;44.972;19.612;2023-07-28T01:43:22;10.15;;;3.15;;
79414;SDS011;68864;44.972;19.612;2023-07-28T01:45:51;9.38;;;4.03;;
79414;SDS011;68864;44.972;19.612;2023-07-28T01:48:17;10.68;;;3.25;;
79414;SDS011;68864;44.972;19.612;2023-07-28T01:50:44;10.70;;;2.83;;
79414;SDS011;68864;44.972;19.612;2023-07-28T01:53:11;10.20;;;3.78;;
79414;SDS011;68864;44.972;19.612;2023-07-28T01:55:38;7.40;;;2.20;;
79414;SDS011;68864;44.972;19.612;2023-07-28T01:58:04;9.27;;;3.03;;
79414;SDS011;68864;44.972;19.612;2023-07-28T02:00:30;12.63;;;3.47;;
79414;SDS011;68864;44.972;19.612;2023-07-28T02:02:58;11.32;;;3.92;;
79414;SDS011;68864;44.972;19.612;2023-07-28T02:05:27;13.10;;;2.35;;
79414;SDS011;68864;44.972;19.612;2023-07-28T02:07:53;5.40;;;1.55;;
79414;SDS011;68864;44.972;19.612;2023-07-28T02:10:21;6.15;;;1.75;;
79414;SDS011;68864;44.972;19.612;2023-07-28T02:12:48;4.90;;;1.23;;
79414;SDS011;68864;44.972;19.612;2023-07-28T02:17:42;3.80;;;1.15;;
79414;SDS011;68864;44.972;19.612;2023-07-28T02:20:10;4.63;;;1.25;;
79414;SDS011;68864;44.972;19.612;2023-07-28T02:22:38;3.70;;;0.47;;
79414;SDS011;68864;44.972;19.612;2023-07-28T02:27:31;4.15;;;1.02;;
79414;SDS011;68864;44.972;19.612;2023-07-28T02:29:58;8.50;;;1.38;;
79414;SDS011;68864;44.972;19.612;2023-07-28T02:34:52;25.65;;;8.15;;
79414;SDS011;68864;44.972;19.612;2023-07-28T02:37:20;23.80;;;7.40;;
79414;SDS011;68864;44.972;19.612;2023-07-28T02:39:47;14.85;;;4.38;;
79414;SDS011;68864;44.972;19.612;2023-07-28T02:42:13;18.50;;;3.83;;
79414;SDS011;68864;44.972;19.612;2023-07-28T02:44:40;14.63;;;3.88;;
79414;SDS011;68864;44.972;19.612;2023-07-28T02:47:07;7.90;;;2.65;;
79414;SDS011;68864;44.972;19.612;2023-07-28T02:49:34;8.65;;;2.67;;
79414;SDS011;68864;44.972;19.612;2023-07-28T02:52:01;11.00;;;1.92;;
79414;SDS011;68864;44.972;19.612;2023-07-28T02:54:29;6.18;;;1.75;;
79414;SDS011;68864;44.972;19.612;2023-07-28T02:56:56;7.72;;;1.58;;
79414;SDS011;68864;44.972;19.612;2023-07-28T03:01:50;5.53;;;1.85;;
79414;SDS011;68864;44.972;19.612;2023-07-28T03:04:17;5.53;;;1.33;;
79414;SDS011;68864;44.972;19.612;2023-07-28T03:06:45;5.47;;;2.13;;
79414;SDS011;68864;44.972;19.612;2023-07-28T03:09:12;4.45;;;1.90;;
79414;SDS011;68864;44.972;19.612;2023-07-28T03:11:41;5.15;;;1.60;;
79414;SDS011;68864;44.972;19.612;2023-07-28T03:14:08;3.80;;;0.95;;
79414;SDS011;68864;44.972;19.612;2023-07-28T03:16:35;11.98;;;1.80;;
79414;SDS011;68864;44.972;19.612;2023-07-28T03:19:01;5.10;;;1.58;;
79414;SDS011;68864;44.972;19.612;2023-07-28T03:21:29;6.65;;;1.60;;
79414;SDS011;68864;44.972;19.612;2023-07-28T03:23:56;5.82;;;1.67;;
79414;SDS011;68864;44.972;19.612;2023-07-28T03:26:22;6.00;;;2.45;;
79414;SDS011;68864;44.972;19.612;2023-07-28T03:28:50;8.88;;;2.42;;
79414;SDS011;68864;44.972;19.612;2023-07-28T03:31:17;8.30;;;2.28;;
79414;SDS011;68864;44.972;19.612;2023-07-28T03:33:44;10.70;;;3.53;;
79414;SDS011;68864;44.972;19.612;2023-07-28T03:36:10;7.38;;;2.47;;
79414;SDS011;68864;44.972;19.612;2023-07-28T03:41:04;6.38;;;2.25;;
79414;SDS011;68864;44.972;19.612;2023-07-28T03:43:32;5.68;;;2.05;;
79414;SDS011;68864;44.972;19.612;2023-07-28T03:46:00;9.35;;;3.50;;
79414;SDS011;68864;44.972;19.612;2023-07-28T03:48:27;8.38;;;3.85;;
79414;SDS011;68864;44.972;19.612;2023-07-28T03:50:54;12.60;;;6.93;;
79414;SDS011;68864;44.972;19.612;2023-07-28T03:53:20;6.47;;;2.58;;
79414;SDS011;68864;44.972;19.612;2023-07-28T03:55:47;9.38;;;4.75;;
79414;SDS011;68864;44.972;19.612;2023-07-28T04:00:41;10.57;;;4.03;;
79414;SDS011;68864;44.972;19.612;2023-07-28T04:03:09;13.05;;;2.97;;
79414;SDS011;68864;44.972;19.612;2023-07-28T04:05:36;7.70;;;3.15;;
79414;SDS011;68864;44.972;19.612;2023-07-28T04:08:03;9.30;;;4.45;;
79414;SDS011;68864;44.972;19.612;2023-07-28T04:10:30;8.07;;;3.10;;
79414;SDS011;68864;44.972;19.612;2023-07-28T04:12:57;6.13;;;2.15;;
79414;SDS011;68864;44.972;19.612;2023-07-28T04:15:23;9.05;;;3.28;;
79414;SDS011;68864;44.972;19.612;2023-07-28T04:17:50;11.88;;;4.00;;
79414;SDS011;68864;44.972;19.612;2023-07-28T04:20:18;15.68;;;6.38;;
79414;SDS011;68864;44.972;19.612;2023-07-28T04:22:45;17.15;;;4.97;;
79414;SDS011;68864;44.972;19.612;2023-07-28T04:25:13;15.35;;;5.18;;
79414;SDS011;68864;44.972;19.612;2023-07-28T04:27:39;14.77;;;6.65;;
79414;SDS011;68864;44.972;19.612;2023-07-28T04:30:06;13.50;;;5.72;;
79414;SDS011;68864;44.972;19.612;2023-07-28T04:32:33;11.10;;;4.72;;
79414;SDS011;68864;44.972;19.612;2023-07-28T04:35:00;9.00;;;3.08;;
79414;SDS011;68864;44.972;19.612;2023-07-28T04:37:28;9.68;;;3.85;;
79414;SDS011;68864;44.972;19.612;2023-07-28T04:39:55;14.55;;;6.93;;
79414;SDS011;68864;44.972;19.612;2023-07-28T04:42:21;15.57;;;6.82;;
79414;SDS011;68864;44.972;19.612;2023-07-28T04:44:49;14.18;;;5.90;;
79414;SDS011;68864;44.972;19.612;2023-07-28T04:47:16;11.35;;;3.97;;
79414;SDS011;68864;44.972;19.612;2023-07-28T04:49:43;28.25;;;10.63;;
79414;SDS011;68864;44.972;19.612;2023-07-28T04:52:10;31.13;;;10.48;;
79414;SDS011;68864;44.972;19.612;2023-07-28T04:54:39;29.65;;;10.02;;
79414;SDS011;68864;44.972;19.612;2023-07-28T04:57:06;26.80;;;9.05;;
79414;SDS011;68864;44.972;19.612;2023-07-28T04:59:32;29.55;;;8.13;;
79414;SDS011;68864;44.972;19.612;2023-07-28T05:01:59;25.33;;;8.90;;
79414;SDS011;68864;44.972;19.612;2023-07-28T05:04:26;24.33;;;7.95;;
79414;SDS011;68864;44.972;19.612;2023-07-28T05:06:53;15.05;;;5.18;;
79414;SDS011;68864;44.972;19.612;2023-07-28T05:09:19;18.52;;;5.45;;
79414;SDS011;68864;44.972;19.612;2023-07-28T05:11:48;15.30;;;5.60;;
79414;SDS011;68864;44.972;19.612;2023-07-28T05:14:14;12.15;;;3.53;;
79414;SDS011;68864;44.972;19.612;2023-07-28T05:16:41;10.18;;;2.25;;
79414;SDS011;68864;44.972;19.612;2023-07-28T05:19:08;8.38;;;2.58;;
79414;SDS011;68864;44.972;19.612;2023-07-28T05:21:35;13.88;;;3.00;;
79414;SDS011;68864;44.972;19.612;2023-07-28T05:24:01;5.18;;;1.77;;
79414;SDS011;68864;44.972;19.612;2023-07-28T05:26:28;11.05;;;3.20;;
79414;SDS011;68864;44.972;19.612;2023-07-28T05:28:56;6.90;;;2.55;;
79414;SDS011;68864;44.972;19.612;2023-07-28T05:31:23;9.65;;;3.88;;
79414;SDS011;68864;44.972;19.612;2023-07-28T05:33:50;16.75;;;3.75;;
79414;SDS011;68864;44.972;19.612;2023-07-28T05:36:18;13.27;;;4.57;;
79414;SDS011;68864;44.972;19.612;2023-07-28T05:38:45;15.65;;;2.88;;
79414;SDS011;68864;44.972;19.612;2023-07-28T05:41:12;7.40;;;2.75;;
79414;SDS011;68864;44.972;19.612;2023-07-28T05:43:38;12.13;;;3.50;;
79414;SDS011;68864;44.972;19.612;2023-07-28T05:46:07;15.32;;;3.65;;
79414;SDS011;68864;44.972;19.612;2023-07-28T05:48:33;17.92;;;6.07;;
79414;SDS011;68864;44.972;19.612;2023-07-28T05:51:00;16.63;;;4.80;;
79414;SDS011;68864;44.972;19.612;2023-07-28T05:53:27;12.68;;;3.90;;
79414;SDS011;68864;44.972;19.612;2023-07-28T05:55:53;11.93;;;4.50;;
79414;SDS011;68864;44.972;19.612;2023-07-28T05:58:20;23.45;;;9.93;;
79414;SDS011;68864;44.972;19.612;2023-07-28T06:00:47;12.73;;;4.10;;
79414;SDS011;68864;44.972;19.612;2023-07-28T06:03:15;12.30;;;3.75;;
79414;SDS011;68864;44.972;19.612;2023-07-28T06:05:42;15.15;;;5.68;;
79414;SDS011;68864;44.972;19.612;2023-07-28T06:08:09;11.63;;;3.92;;
79414;SDS011;68864;44.972;19.612;2023-07-28T06:10:36;13.00;;;6.35;;
79414;SDS011;68864;44.972;19.612;2023-07-28T06:13:03;16.88;;;4.57;;
79414;SDS011;68864;44.972;19.612;2023-07-28T06:15:30;8.07;;;2.30;;
79414;SDS011;68864;44.972;19.612;2023-07-28T06:18:00;9.35;;;3.45;;
79414;SDS011;68864;44.972;19.612;2023-07-28T06:20:28;10.07;;;2.97;;
79414;SDS011;68864;44.972;19.612;2023-07-28T06:22:55;8.00;;;2.35;;
79414;SDS011;68864;44.972;19.612;2023-07-28T06:25:22;13.18;;;5.65;;
79414;SDS011;68864;44.972;19.612;2023-07-28T06:30:16;17.08;;;5.25;;
79414;SDS011;68864;44.972;19.612;2023-07-28T06:35:09;9.90;;;2.38;;
79414;SDS011;68864;44.972;19.612;2023-07-28T06:37:38;15.40;;;3.17;;
79414;SDS011;68864;44.972;19.612;2023-07-28T06:40:05;11.52;;;2.85;;
79414;SDS011;68864;44.972;19.612;2023-07-28T06:42:34;8.65;;;2.92;;
79414;SDS011;68864;44.972;19.612;2023-07-28T06:45:02;18.88;;;2.80;;
79414;SDS011;68864;44.972;19.612;2023-07-28T06:47:29;4.75;;;1.20;;
79414;SDS011;68864;44.972;19.612;2023-07-28T06:52:23;4.93;;;0.95;;
79414;SDS011;68864;44.972;19.612;2023-07-28T06:54:51;6.10;;;1.73;;
79414;SDS011;68864;44.972;19.612;2023-07-28T06:57:19;7.75;;;2.25;;
79414;SDS011;68864;44.972;19.612;2023-07-28T06:59:45;6.47;;;1.58;;
79414;SDS011;68864;44.972;19.612;2023-07-28T07:02:12;7.30;;;2.60;;
79414;SDS011;68864;44.972;19.612;2023-07-28T07:04:40;6.65;;;1.65;;
79414;SDS011;68864;44.972;19.612;2023-07-28T07:09:34;5.88;;;2.13;;
79414;SDS011;68864;44.972;19.612;2023-07-28T07:12:02;4.72;;;1.88;;
79414;SDS011;68864;44.972;19.612;2023-07-28T07:14:29;7.68;;;2.63;;
79414;SDS011;68864;44.972;19.612;2023-07-28T07:16:56;8.73;;;1.92;;
79414;SDS011;68864;44.972;19.612;2023-07-28T07:19:22;4.40;;;1.67;;
79414;SDS011;68864;44.972;19.612;2023-07-28T07:21:51;5.25;;;1.52;;
79414;SDS011;68864;44.972;19.612;2023-07-28T07:24:17;4.30;;;0.77;;
79414;SDS011;68864;44.972;19.612;2023-07-28T07:26:44;8.48;;;2.45;;
79414;SDS011;68864;44.972;19.612;2023-07-28T07:29:12;5.68;;;1.70;;
79414;SDS011;68864;44.972;19.612;2023-07-28T07:31:39;6.38;;;1.17;;
79414;SDS011;68864;44.972;19.612;2023-07-28T07:34:06;4.68;;;1.38;;
79414;SDS011;68864;44.972;19.612;2023-07-28T07:36:33;3.88;;;1.55;;
79414;SDS011;68864;44.972;19.612;2023-07-28T07:39:00;9.60;;;3.75;;
79414;SDS011;68864;44.972;19.612;2023-07-28T07:41:26;3.63;;;2.10;;
79414;SDS011;68864;44.972;19.612;2023-07-28T07:43:54;8.43;;;3.03;;
79414;SDS011;68864;44.972;19.612;2023-07-28T07:46:23;11.88;;;6.70;;
79414;SDS011;68864;44.972;19.612;2023-07-28T07:48:50;6.50;;;3.40;;
79414;SDS011;68864;44.972;19.612;2023-07-28T07:51:16;13.35;;;7.68;;
79414;SDS011;68864;44.972;19.612;2023-07-28T07:53:43;10.18;;;4.47;;
79414;SDS011;68864;44.972;19.612;2023-07-28T07:56:10;9.48;;;4.18;;
79414;SDS011;68864;44.972;19.612;2023-07-28T07:58:37;6.20;;;1.88;;
79414;SDS011;68864;44.972;19.612;2023-07-28T08:01:04;2.95;;;1.58;;
79414;SDS011;68864;44.972;19.612;2023-07-28T08:03:32;5.10;;;1.98;;
79414;SDS011;68864;44.972;19.612;2023-07-28T08:06:01;6.13;;;2.05;;
79414;SDS011;68864;44.972;19.612;2023-07-28T08:08:28;4.38;;;2.50;;
79414;SDS011;68864;44.972;19.612;2023-07-28T08:10:55;3.90;;;1.85;;
79414;SDS011;68864;44.972;19.612;2023-07-28T08:13:22;6.35;;;1.77;;
79414;SDS011;68864;44.972;19.612;2023-07-28T08:15:48;4.28;;;1.55;;
79414;SDS011;68864;44.972;19.612;2023-07-28T08:18:15;6.43;;;1.48;;
79414;SDS011;68864;44.972;19.612;2023-07-28T08:20:43;6.43;;;1.00;;
79414;SDS011;68864;44.972;19.612;2023-07-28T08:23:10;4.10;;;1.52;;
79414;SDS011;68864;44.972;19.612;2023-07-28T08:25:37;3.95;;;0.95;;
79414;SDS011;68864;44.972;19.612;2023-07-28T08:28:04;4.68;;;1.23;;
79414;SDS011;68864;44.972;19.612;2023-07-28T08:30:31;6.50;;;1.05;;
79414;SDS011;68864;44.972;19.612;2023-07-28T08:32:58;4.78;;;1.35;;
79414;SDS011;68864;44.972;19.612;2023-07-28T08:35:24;6.57;;;1.70;;
79414;SDS011;68864;44.972;19.612;2023-07-28T08:37:53;4.90;;;1.10;;
79414;SDS011;68864;44.972;19.612;2023-07-28T08:40:19;5.05;;;1.30;;
79414;SDS011;68864;44.972;19.612;2023-07-28T08:42:46;4.65;;;0.60;;
79414;SDS011;68864;44.972;19.612;2023-07-28T08:45:14;4.30;;;0.50;;
79414;SDS011;68864;44.972;19.612;2023-07-28T08:47:41;9.18;;;1.67;;
79414;SDS011;68864;44.972;19.612;2023-07-28T08:50:09;6.20;;;1.25;;
79414;SDS011;68864;44.972;19.612;2023-07-28T08:52:36;4.20;;;1.13;;
79414;SDS011;68864;44.972;19.612;2023-07-28T08:55:04;5.25;;;1.10;;
79414;SDS011;68864;44.972;19.612;2023-07-28T08:57:32;5.20;;;1.27;;
79414;SDS011;68864;44.972;19.612;2023-07-28T08:59:59;12.32;;;3.72;;
79414;SDS011;68864;44.972;19.612;2023-07-28T09:02:33;11.85;;;4.53;;
79414;SDS011;68864;44.972;19.612;2023-07-28T09:05:02;6.63;;;0.98;;
79414;SDS011;68864;44.972;19.612;2023-07-28T09:07:33;5.72;;;1.15;;
79414;SDS011;68864;44.972;19.612;2023-07-28T09:10:00;5.97;;;2.63;;
79414;SDS011;68864;44.972;19.612;2023-07-28T09:12:29;7.55;;;1.08;;
79414;SDS011;68864;44.972;19.612;2023-07-28T09:14:57;9.15;;;0.98;;
79414;SDS011;68864;44.972;19.612;2023-07-28T09:17:24;7.55;;;1.05;;
79414;SDS011;68864;44.972;19.612;2023-07-28T09:19:51;8.10;;;0.60;;
79414;SDS011;68864;44.972;19.612;2023-07-28T09:22:19;6.68;;;1.00;;
79414;SDS011;68864;44.972;19.612;2023-07-28T09:24:46;10.57;;;1.52;;
79414;SDS011;68864;44.972;19.612;2023-07-28T09:27:20;7.95;;;1.40;;
79414;SDS011;68864;44.972;19.612;2023-07-28T09:29:49;8.98;;;0.80;;
79414;SDS011;68864;44.972;19.612;2023-07-28T09:32:17;4.47;;;0.52;;
79414;SDS011;68864;44.972;19.612;2023-07-28T09:35:05;11.80;;;1.02;;
79414;SDS011;68864;44.972;19.612;2023-07-28T09:37:34;7.00;;;0.80;;
79414;SDS011;68864;44.972;19.612;2023-07-28T09:40:04;8.38;;;1.08;;
79414;SDS011;68864;44.972;19.612;2023-07-28T09:42:36;12.80;;;0.75;;
79414;SDS011;68864;44.972;19.612;2023-07-28T09:45:05;7.78;;;1.23;;
79414;SDS011;68864;44.972;19.612;2023-07-28T09:47:33;3.85;;;1.30;;
79414;SDS011;68864;44.972;19.612;2023-07-28T09:50:01;7.78;;;1.38;;
79414;SDS011;68864;44.972;19.612;2023-07-28T09:52:31;4.15;;;0.82;;
79414;SDS011;68864;44.972;19.612;2023-07-28T09:55:02;8.43;;;1.10;;
79414;SDS011;68864;44.972;19.612;2023-07-28T09:57:33;4.28;;;0.50;;
79414;SDS011;68864;44.972;19.612;2023-07-28T10:00:07;8.80;;;1.30;;
79414;SDS011;68864;44.972;19.612;2023-07-28T10:02:36;5.30;;;1.40;;
79414;SDS011;68864;44.972;19.612;2023-07-28T10:05:05;7.20;;;1.42;;
79414;SDS011;68864;44.972;19.612;2023-07-28T10:07:33;8.50;;;1.27;;
79414;SDS011;68864;44.972;19.612;2023-07-28T10:10:03;2.85;;;0.65;;
79414;SDS011;68864;44.972;19.612;2023-07-28T10:12:39;5.22;;;0.60;;
79414;SDS011;68864;44.972;19.612;2023-07-28T10:15:11;10.00;;;3.67;;
79414;SDS011;68864;44.972;19.612;2023-07-28T10:17:43;23.60;;;10.10;;
79414;SDS011;68864;44.972;19.612;2023-07-28T10:20:26;7.93;;;2.17;;
79414;SDS011;68864;44.972;19.612;2023-07-28T10:22:58;4.45;;;0.90;;
79414;SDS011;68864;44.972;19.612;2023-07-28T10:25:30;5.15;;;1.75;;
79414;SDS011;68864;44.972;19.612;2023-07-28T10:27:59;6.93;;;1.35;;
79414;SDS011;68864;44.972;19.612;2023-07-28T10:30:28;6.63;;;1.63;;
79414;SDS011;68864;44.972;19.612;2023-07-28T10:32:55;7.57;;;3.45;;
79414;SDS011;68864;44.972;19.612;2023-07-28T10:35:23;7.03;;;1.75;;
79414;SDS011;68864;44.972;19.612;2023-07-28T10:37:51;4.90;;;1.20;;
79414;SDS011;68864;44.972;19.612;2023-07-28T10:40:21;3.80;;;0.98;;
79414;SDS011;68864;44.972;19.612;2023-07-28T10:42:50;4.50;;;1.05;;
79414;SDS011;68864;44.972;19.612;2023-07-28T10:45:17;3.92;;;0.77;;
79414;SDS011;68864;44.972;19.612;2023-07-28T10:47:46;3.55;;;1.25;;
79414;SDS011;68864;44.972;19.612;2023-07-28T10:50:13;4.20;;;1.00;;
79414;SDS011;68864;44.972;19.612;2023-07-28T10:52:41;6.00;;;0.88;;
79414;SDS011;68864;44.972;19.612;2023-07-28T10:55:11;4.07;;;1.20;;
79414;SDS011;68864;44.972;19.612;2023-07-28T10:57:40;3.80;;;0.68;;
79414;SDS011;68864;44.972;19.612;2023-07-28T11:00:07;3.20;;;1.23;;
79414;SDS011;68864;44.972;19.612;2023-07-28T11:02:37;5.82;;;1.17;;
79414;SDS011;68864;44.972;19.612;2023-07-28T11:05:09;4.32;;;0.80;;
79414;SDS011;68864;44.972;19.612;2023-07-28T11:07:38;3.58;;;1.38;;
79414;SDS011;68864;44.972;19.612;2023-07-28T11:10:07;9.50;;;3.08;;
79414;SDS011;68864;44.972;19.612;2023-07-28T11:12:34;6.10;;;1.88;;
79414;SDS011;68864;44.972;19.612;2023-07-28T11:15:01;10.50;;;3.40;;
79414;SDS011;68864;44.972;19.612;2023-07-28T11:17:28;9.88;;;3.15;;
79414;SDS011;68864;44.972;19.612;2023-07-28T11:19:55;11.20;;;4.38;;
79414;SDS011;68864;44.972;19.612;2023-07-28T11:22:23;8.93;;;3.70;;
79414;SDS011;68864;44.972;19.612;2023-07-28T11:24:52;9.50;;;1.90;;
79414;SDS011;68864;44.972;19.612;2023-07-28T11:27:19;6.60;;;0.57;;
79414;SDS011;68864;44.972;19.612;2023-07-28T11:29:46;8.73;;;2.80;;
79414;SDS011;68864;44.972;19.612;2023-07-28T11:32:16;5.97;;;1.52;;
79414;SDS011;68864;44.972;19.612;2023-07-28T11:34:44;5.43;;;0.60;;
79414;SDS011;68864;44.972;19.612;2023-07-28T11:37:11;6.03;;;0.68;;
79414;SDS011;68864;44.972;19.612;2023-07-28T11:39:39;9.88;;;0.65;;
79414;SDS011;68864;44.972;19.612;2023-07-28T11:42:07;5.25;;;0.35;;
79414;SDS011;68864;44.972;19.612;2023-07-28T11:44:35;8.52;;;2.88;;
79414;SDS011;68864;44.972;19.612;2023-07-28T11:47:04;5.50;;;0.75;;
79414;SDS011;68864;44.972;19.612;2023-07-28T11:49:31;5.80;;;1.35;;
79414;SDS011;68864;44.972;19.612;2023-07-28T11:51:58;4.30;;;0.82;;
79414;SDS011;68864;44.972;19.612;2023-07-28T11:54:26;4.53;;;0.80;;
79414;SDS011;68864;44.972;19.612;2023-07-28T11:56:56;3.65;;;0.38;;
79414;SDS011;68864;44.972;19.612;2023-07-28T11:59:23;3.00;;;0.65;;
79414;SDS011;68864;44.972;19.612;2023-07-28T12:01:53;3.13;;;0.40;;
79414;SDS011;68864;44.972;19.612;2023-07-28T12:04:22;4.88;;;0.45;;
79414;SDS011;68864;44.972;19.612;2023-07-28T12:07:00;4.10;;;1.35;;
79414;SDS011;68864;44.972;19.612;2023-07-28T12:09:31;3.88;;;1.05;;
79414;SDS011;68864;44.972;19.612;2023-07-28T12:12:00;6.18;;;1.02;;
79414;SDS011;68864;44.972;19.612;2023-07-28T12:14:30;4.82;;;1.20;;
79414;SDS011;68864;44.972;19.612;2023-07-28T12:16:58;4.90;;;0.80;;
79414;SDS011;68864;44.972;19.612;2023-07-28T12:19:26;5.45;;;0.88;;
79414;SDS011;68864;44.972;19.612;2023-07-28T12:21:52;4.00;;;1.70;;
79414;SDS011;68864;44.972;19.612;2023-07-28T12:24:19;3.03;;;0.60;;
79414;SDS011;68864;44.972;19.612;2023-07-28T12:26:46;3.75;;;0.50;;
79414;SDS011;68864;44.972;19.612;2023-07-28T12:29:15;3.55;;;1.23;;
79414;SDS011;68864;44.972;19.612;2023-07-28T12:31:41;3.42;;;1.25;;
79414;SDS011;68864;44.972;19.612;2023-07-28T12:34:09;13.60;;;3.00;;
79414;SDS011;68864;44.972;19.612;2023-07-28T12:36:36;21.27;;;10.77;;
79414;SDS011;68864;44.972;19.612;2023-07-28T12:39:03;8.85;;;2.10;;
79414;SDS011;68864;44.972;19.612;2023-07-28T12:41:31;17.65;;;9.77;;
79414;SDS011;68864;44.972;19.612;2023-07-28T12:43:57;16.58;;;6.82;;
79414;SDS011;68864;44.972;19.612;2023-07-28T12:46:26;8.90;;;4.85;;
79414;SDS011;68864;44.972;19.612;2023-07-28T12:48:52;5.05;;;1.38;;
79414;SDS011;68864;44.972;19.612;2023-07-28T12:51:19;3.58;;;0.90;;
79414;SDS011;68864;44.972;19.612;2023-07-28T12:53:46;3.22;;;0.82;;
79414;SDS011;68864;44.972;19.612;2023-07-28T12:56:13;4.57;;;0.88;;
79414;SDS011;68864;44.972;19.612;2023-07-28T12:58:40;4.63;;;0.20;;
79414;SDS011;68864;44.972;19.612;2023-07-28T13:01:06;2.58;;;0.57;;
79414;SDS011;68864;44.972;19.612;2023-07-28T13:03:35;3.58;;;0.65;;
79414;SDS011;68864;44.972;19.612;2023-07-28T13:06:03;2.42;;;0.30;;
79414;SDS011;68864;44.972;19.612;2023-07-28T13:08:30;5.40;;;3.20;;
79414;SDS011;68864;44.972;19.612;2023-07-28T13:10:57;2.67;;;0.28;;
79414;SDS011;68864;44.972;19.612;2023-07-28T13:13:23;2.47;;;0.50;;
79414;SDS011;68864;44.972;19.612;2023-07-28T13:15:50;3.00;;;0.45;;
79414;SDS011;68864;44.972;19.612;2023-07-28T13:18:17;2.83;;;1.00;;
79414;SDS011;68864;44.972;19.612;2023-07-28T13:20:45;2.35;;;0.50;;
79414;SDS011;68864;44.972;19.612;2023-07-28T13:23:11;3.08;;;1.05;;
79414;SDS011;68864;44.972;19.612;2023-07-28T13:28:05;2.60;;;0.30;;
79414;SDS011;68864;44.972;19.612;2023-07-28T13:30:32;2.45;;;0.38;;
79414;SDS011;68864;44.972;19.612;2023-07-28T13:32:58;2.50;;;0.43;;
79414;SDS011;68864;44.972;19.612;2023-07-28T13:35:26;5.03;;;1.15;;
79414;SDS011;68864;44.972;19.612;2023-07-28T13:37:54;2.67;;;0.30;;
79414;SDS011;68864;44.972;19.612;2023-07-28T13:40:21;3.08;;;0.73;;
79414;SDS011;68864;44.972;19.612;2023-07-28T13:42:47;4.50;;;1.17;;
79414;SDS011;68864;44.972;19.612;2023-07-28T13:45:14;2.35;;;0.40;;
79414;SDS011;68864;44.972;19.612;2023-07-28T13:47:41;2.78;;;0.40;;
79414;SDS011;68864;44.972;19.612;2023-07-28T13:50:08;3.10;;;0.20;;
79414;SDS011;68864;44.972;19.612;2023-07-28T13:52:35;3.40;;;0.65;;
79414;SDS011;68864;44.972;19.612;2023-07-28T13:55:04;3.28;;;0.50;;
79414;SDS011;68864;44.972;19.612;2023-07-28T13:57:31;4.22;;;1.08;;
79414;SDS011;68864;44.972;19.612;2023-07-28T13:59:58;2.92;;;0.45;;
79414;SDS011;68864;44.972;19.612;2023-07-28T14:02:24;4.72;;;0.45;;
79414;SDS011;68864;44.972;19.612;2023-07-28T14:04:51;3.33;;;0.50;;
79414;SDS011;68864;44.972;19.612;2023-07-28T14:07:18;2.47;;;0.30;;
79414;SDS011;68864;44.972;19.612;2023-07-28T14:12:13;4.90;;;0.45;;
79414;SDS011;68864;44.972;19.612;2023-07-28T14:14:39;4.93;;;0.70;;
79414;SDS011;68864;44.972;19.612;2023-07-28T14:17:06;9.05;;;0.65;;
79414;SDS011;68864;44.972;19.612;2023-07-28T14:19:33;16.60;;;3.08;;
79414;SDS011;68864;44.972;19.612;2023-07-28T14:22:00;4.88;;;0.68;;
79414;SDS011;68864;44.972;19.612;2023-07-28T14:24:27;15.73;;;7.20;;
79414;SDS011;68864;44.972;19.612;2023-07-28T14:26:53;3.03;;;1.20;;
79414;SDS011;68864;44.972;19.612;2023-07-28T14:29:21;12.23;;;6.40;;
79414;SDS011;68864;44.972;19.612;2023-07-28T14:31:48;4.03;;;1.38;;
79414;SDS011;68864;44.972;19.612;2023-07-28T14:34:15;3.08;;;0.50;;
79414;SDS011;68864;44.972;19.612;2023-07-28T14:36:42;3.35;;;0.90;;
79414;SDS011;68864;44.972;19.612;2023-07-28T14:39:09;5.75;;;2.13;;
79414;SDS011;68864;44.972;19.612;2023-07-28T14:41:36;3.10;;;0.40;;
79414;SDS011;68864;44.972;19.612;2023-07-28T14:44:03;6.35;;;2.20;;
79414;SDS011;68864;44.972;19.612;2023-07-28T14:46:31;7.10;;;0.85;;
79414;SDS011;68864;44.972;19.612;2023-07-28T14:48:58;5.13;;;1.95;;
79414;SDS011;68864;44.972;19.612;2023-07-28T14:51:25;3.03;;;0.70;;
79414;SDS011;68864;44.972;19.612;2023-07-28T14:53:52;4.85;;;0.65;;
79414;SDS011;68864;44.972;19.612;2023-07-28T14:56:20;2.10;;;0.40;;
79414;SDS011;68864;44.972;19.612;2023-07-28T14:58:49;2.78;;;0.63;;
79414;SDS011;68864;44.972;19.612;2023-07-28T15:01:18;5.72;;;0.77;;
79414;SDS011;68864;44.972;19.612;2023-07-28T15:03:46;2.95;;;0.80;;
79414;SDS011;68864;44.972;19.612;2023-07-28T15:06:13;3.30;;;0.60;;
79414;SDS011;68864;44.972;19.612;2023-07-28T15:08:40;2.40;;;0.40;;
79414;SDS011;68864;44.972;19.612;2023-07-28T15:11:07;2.63;;;0.75;;
79414;SDS011;68864;44.972;19.612;2023-07-28T15:13:34;3.67;;;0.25;;